Time;durP1;ratioP1;P1;durP2;ratioP2;P2;SDS_P1;SDS_P2;PMS_P1;PMS_P2;Temp;Humidity;BMP_temperature;BMP_pressure;BME280_temperature;BME280_humidity;BME280_pressure;Samples;Min_cycle;Max_cycle;Signal;HPM_P1;HPM_P2
2023/10/07 00:00:31;;;;;;;9.05;4.20;;;15.20;99.90;;;15.45;68.39;101146.09;4984947;28;20051;-87
2023/10/07 00:03:00;;;;;;;11.63;4.57;;;15.20;99.90;;;15.48;68.25;101140.28;4934440;29;20150;-86
2023/10/07 00:05:31;;;;;;;12.32;4.72;;;15.20;99.90;;;15.51;68.13;101147.03;4917414;29;20048;-86
2023/10/07 00:08:03;;;;;;;16.58;5.05;;;15.20;99.90;;;15.49;68.20;101144.59;4942885;29;20047;-86
2023/10/07 00:10:32;;;;;;;7.90;3.63;;;15.20;99.90;;;15.51;68.21;101147.03;4954269;28;20106;-86
2023/10/07 00:13:04;;;;;;;11.63;4.50;;;15.20;99.90;;;15.48;68.27;101148.34;4951099;29;20052;-86
2023/10/07 00:15:32;;;;;;;11.32;3.83;;;15.20;99.90;;;15.51;68.51;101155.09;4951773;28;20047;-86
2023/10/07 00:18:10;;;;;;;11.10;4.22;;;15.20;99.90;;;15.50;68.39;101161.53;4963448;28;20051;-86
2023/10/07 00:20:41;;;;;;;12.48;4.22;;;15.10;99.90;;;15.50;68.46;101161.53;4951243;28;20055;-86
2023/10/07 00:23:12;;;;;;;11.95;4.28;;;15.20;99.90;;;15.46;68.71;101167.34;4927635;29;20138;-86
2023/10/07 00:25:40;;;;;;;9.30;4.13;;;15.20;99.90;;;15.43;68.83;101164.31;4918434;29;20044;-87
2023/10/07 00:28:19;;;;;;;8.88;4.00;;;15.20;99.90;;;15.40;69.02;101168.28;4947450;29;20066;-86
2023/10/07 00:30:49;;;;;;;13.13;4.50;;;15.20;99.90;;;15.45;68.90;101164.91;4934283;29;20170;-86
2023/10/07 00:33:21;;;;;;;8.83;4.00;;;15.20;99.90;;;15.50;68.62;101164.22;4951042;29;20048;-86
2023/10/07 00:35:50;;;;;;;11.60;4.07;;;15.20;99.90;;;15.46;68.88;101161.16;4936214;29;20303;-86
2023/10/07 00:38:21;;;;;;;10.00;3.97;;;15.10;99.90;;;15.50;68.92;101156.16;4931796;28;20147;-86
2023/10/07 00:40:53;;;;;;;14.23;4.32;;;15.10;99.90;;;15.48;68.70;101156.41;4931634;29;20054;-87
2023/10/07 00:43:30;;;;;;;9.57;3.47;;;15.10;99.90;;;15.38;69.29;101148.06;4936023;29;20126;-86
2023/10/07 00:46:07;;;;;;;10.75;3.90;;;15.10;99.90;;;15.37;69.21;101144.56;4935299;29;20060;-86
2023/10/07 00:48:46;;;;;;;13.25;3.90;;;15.10;99.90;;;15.36;69.24;101142.06;4952287;28;20062;-86
2023/10/07 00:51:17;;;;;;;13.15;4.82;;;15.10;99.90;;;15.36;69.15;101140.19;4923707;29;20071;-86
2023/10/07 00:53:53;;;;;;;12.52;4.28;;;15.10;99.90;;;15.38;69.25;101130.06;4930109;29;20044;-86
2023/10/07 00:56:25;;;;;;;11.48;3.88;;;15.10;99.90;;;15.34;69.36;101142.31;4918661;29;20044;-87
2023/10/07 00:58:55;;;;;;;8.98;3.88;;;15.10;99.90;;;15.34;69.39;101136.09;4944089;29;20138;-86
2023/10/07 01:01:22;;;;;;;12.55;4.03;;;15.00;99.90;;;15.32;69.28;101120.19;4934477;29;20043;-86
2023/10/07 01:03:54;;;;;;;8.32;3.80;;;15.10;99.90;;;15.29;69.57;101115.28;4969224;28;20059;-86
2023/10/07 01:06:29;;;;;;;12.55;4.22;;;15.00;99.90;;;15.30;69.64;101116.91;4923117;29;20052;-86
2023/10/07 01:09:07;;;;;;;9.77;3.83;;;15.00;99.90;;;15.30;69.66;101108.84;4966024;28;20126;-86
2023/10/07 01:11:40;;;;;;;9.23;3.70;;;15.00;99.90;;;15.20;69.91;101098.66;4947921;29;20047;-86
2023/10/07 01:14:11;;;;;;;12.13;4.38;;;14.90;99.90;;;15.16;70.16;101086.69;4954789;29;20060;-86
2023/10/07 01:16:44;;;;;;;11.60;4.35;;;14.90;99.90;;;15.15;70.15;101087.75;4956501;28;20074;-86
2023/10/07 01:19:18;;;;;;;12.52;4.45;;;14.90;99.90;;;15.22;70.18;101086.84;4938985;29;20080;-87
2023/10/07 01:21:54;;;;;;;10.95;4.22;;;14.90;99.90;;;15.26;69.87;101088.03;4950068;28;20063;-86
2023/10/07 01:24:34;;;;;;;9.48;3.88;;;15.00;99.90;;;15.23;69.99;101086.63;4920101;29;20072;-86
2023/10/07 01:27:07;;;;;;;9.48;4.30;;;14.90;99.90;;;15.28;70.00;101075.22;4962904;28;20057;-86
2023/10/07 01:29:35;;;;;;;10.75;4.32;;;15.00;99.90;;;15.26;70.02;101083.47;4950894;28;20098;-86
2023/10/07 01:32:12;;;;;;;11.40;4.20;;;14.90;99.90;;;15.20;70.40;101109.41;4952932;28;20040;-86
2023/10/07 01:34:47;;;;;;;12.52;4.13;;;14.90;99.90;;;15.21;70.52;101129.03;4925267;29;20131;-86
2023/10/07 01:37:15;;;;;;;9.50;4.20;;;14.90;99.90;;;15.22;70.63;101122.59;4945728;29;20043;-86
2023/10/07 01:39:45;;;;;;;13.45;4.55;;;14.90;99.90;;;15.27;70.27;101120.03;4957091;28;20063;-86
2023/10/07 01:42:20;;;;;;;12.43;4.32;;;14.90;99.90;;;15.29;70.56;101120.66;4932031;29;20047;-86
2023/10/07 01:44:49;;;;;;;12.90;4.72;;;14.90;99.90;;;15.28;70.69;101120.91;4920353;29;20052;-86
2023/10/07 01:47:23;;;;;;;16.20;5.22;;;15.00;99.90;;;15.23;71.00;101108.13;4937103;29;20056;-86
2023/10/07 01:49:53;;;;;;;14.63;5.00;;;14.90;99.90;;;15.20;71.34;101098.66;4982699;28;20040;-86
2023/10/07 01:52:26;;;;;;;12.63;5.20;;;14.90;99.90;;;15.18;71.60;101105.31;4938167;29;20044;-86
2023/10/07 01:54:58;;;;;;;12.98;4.82;;;14.90;99.90;;;15.22;71.47;101086.84;4939859;29;20492;-86
2023/10/07 01:57:26;;;;;;;12.02;4.78;;;15.00;99.90;;;15.15;71.56;101076.19;4961215;28;20046;-86
2023/10/07 01:59:57;;;;;;;11.02;4.50;;;15.00;99.90;;;15.17;71.71;101079.47;4938309;28;20056;-86
2023/10/07 02:02:26;;;;;;;;;;;15.00;99.90;;;15.20;71.93;101093.28;4919977;29;20077;-86
2023/10/07 02:04:56;;;;;;;13.25;4.97;;;15.00;99.90;;;15.27;71.77;101093.19;4953449;28;20041;-86
2023/10/07 02:07:24;;;;;;;14.73;5.28;;;15.00;99.90;;;15.27;71.83;101101.25;4945625;29;20054;-86
2023/10/07 02:09:54;;;;;;;10.88;4.60;;;15.00;99.90;;;15.29;71.86;101091.09;4939048;28;20044;-86
2023/10/07 02:12:24;;;;;;;12.85;5.00;;;15.00;99.90;;;15.27;71.95;101105.78;4921166;29;20142;-86
2023/10/07 02:14:52;;;;;;;12.32;5.05;;;15.00;99.90;;;15.29;71.95;101101.84;4951759;28;20051;-87
2023/10/07 02:17:25;;;;;;;18.58;5.70;;;15.00;99.90;;;15.30;72.03;101102.66;4944765;29;20053;-86
2023/10/07 02:19:59;;;;;;;11.48;5.35;;;15.00;99.90;;;15.29;72.02;101093.78;4948218;28;20047;-86
2023/10/07 02:22:28;;;;;;;12.15;5.35;;;15.00;99.90;;;15.26;72.19;101101.47;4952153;28;20080;-86
2023/10/07 02:25:03;;;;;;;14.07;5.10;;;15.00;99.90;;;15.24;72.49;101103.56;4904815;29;20040;-86
2023/10/07 02:27:42;;;;;;;12.70;5.72;;;15.00;99.90;;;15.27;72.44;101111.97;4948266;29;20058;-86
2023/10/07 02:30:19;;;;;;;15.80;6.28;;;15.00;99.90;;;15.24;72.44;101128.59;4983212;28;20040;-86
2023/10/07 02:32:48;;;;;;;15.75;5.65;;;15.00;99.90;;;15.23;72.52;101124.25;4952024;28;20043;-87
2023/10/07 02:35:20;;;;;;;12.80;5.65;;;15.00;99.90;;;15.23;72.63;101128.81;4921237;29;20051;-86
2023/10/07 02:37:50;;;;;;;16.85;5.78;;;15.00;99.90;;;15.25;72.75;101115.97;4960780;28;20128;-86
2023/10/07 02:40:22;;;;;;;14.57;5.73;;;15.00;99.90;;;15.23;72.66;101121.56;4922257;29;20094;-86
2023/10/07 02:42:54;;;;;;;11.80;5.97;;;15.00;99.90;;;15.18;73.05;101121.44;4937170;29;20431;-86
2023/10/07 02:45:28;;;;;;;16.58;6.05;;;15.00;99.90;;;15.20;72.99;101109.41;4953736;29;20059;-86
2023/10/07 02:48:00;;;;;;;11.23;5.95;;;15.00;99.90;;;15.24;72.83;101120.53;4948388;29;20047;-86
2023/10/07 02:50:31;;;;;;;15.93;6.35;;;15.00;99.90;;;15.25;72.87;101111.41;4939333;29;20048;-86
2023/10/07 02:53:01;;;;;;;18.80;6.20;;;15.00;99.90;;;15.21;72.97;101118.28;4939315;29;20043;-86
2023/10/07 02:55:38;;;;;;;13.23;5.47;;;15.00;99.90;;;15.20;73.25;101128.19;4939782;29;20563;-86
2023/10/07 02:58:09;;;;;;;14.20;5.95;;;15.00;99.90;;;15.24;73.21;101127.75;4969150;28;20295;-86
2023/10/07 03:00:37;;;;;;;16.20;5.90;;;15.00;99.90;;;15.23;73.25;101116.19;4952129;29;20050;-86
2023/10/07 03:03:32;;;;;;;11.73;5.13;;;15.00;99.90;;;15.27;73.15;101125.41;4936351;29;20104;-86
2023/10/07 03:06:06;;;;;;;17.25;6.35;;;15.00;99.90;;;15.23;73.44;101129.63;4942476;29;20052;-86
2023/10/07 03:08:47;;;;;;;13.77;5.97;;;15.00;99.90;;;15.22;73.61;101133.34;4971111;28;20047;-86
2023/10/07 03:11:21;;;;;;;15.68;6.75;;;15.00;99.90;;;15.15;73.98;101120.00;4918120;29;20500;-87
2023/10/07 03:13:56;;;;;;;17.77;6.53;;;15.00;99.90;;;15.16;74.01;101118.13;4936137;29;20083;-86
2023/10/07 03:16:43;;;;;;;13.43;6.60;;;15.00;99.90;;;15.19;74.02;101109.63;4939749;28;20109;-86
2023/10/07 03:19:20;;;;;;;17.15;7.10;;;15.00;99.90;;;15.13;74.16;101110.53;4935309;28;20533;-86
2023/10/07 03:22:07;;;;;;;16.25;7.18;;;15.00;99.90;;;15.14;74.40;101115.69;4951603;28;20683;-86
2023/10/07 03:24:42;;;;;;;15.38;6.65;;;14.90;99.90;;;15.16;74.38;101112.75;4951581;28;20082;-86
2023/10/07 03:27:25;;;;;;;14.75;6.65;;;15.00;99.90;;;15.19;74.60;101120.38;4941806;29;20125;-86
2023/10/07 03:30:12;;;;;;;16.05;6.47;;;15.00;99.90;;;15.20;74.66;101119.31;4955152;28;20061;-87
2023/10/07 03:32:56;;;;;;;14.85;6.72;;;15.00;99.90;;;15.20;74.99;101114.75;4944177;28;20062;-86
2023/10/07 03:36:07;;;;;;;17.98;8.15;;;15.00;99.90;;;15.24;74.84;101115.16;4935165;29;20139;-86
2023/10/07 03:38:35;;;;;;;21.20;7.93;;;15.00;99.90;;;15.26;74.93;101115.72;4964683;28;20142;-86
2023/10/07 03:41:09;;;;;;;20.75;7.88;;;15.10;99.90;;;15.30;74.84;101114.22;4955916;28;20051;-86
2023/10/07 03:43:37;;;;;;;15.75;8.07;;;15.10;99.90;;;15.31;74.84;101110.50;4933824;29;20138;-86
2023/10/07 03:46:06;;;;;;;16.65;8.82;;;15.10;99.90;;;15.23;75.45;101126.94;4935538;29;20507;-87
2023/10/07 03:48:34;;;;;;;18.33;8.15;;;15.10;99.90;;;15.20;75.83;101124.69;4952994;29;20059;-86
2023/10/07 03:51:06;;;;;;;16.52;8.52;;;15.10;99.90;;;15.25;75.78;101116.78;4943388;28;20119;-86
2023/10/07 03:53:44;;;;;;;16.85;8.40;;;15.10;99.90;;;15.24;75.88;101112.47;4934756;29;20048;-86
2023/10/07 03:56:12;;;;;;;19.25;8.40;;;15.10;99.90;;;15.27;75.88;101117.34;4924914;29;20043;-87
2023/10/07 03:58:41;;;;;;;16.92;8.40;;;15.10;99.90;;;15.33;75.78;101110.28;4950050;28;20039;-86
2023/10/07 04:01:16;;;;;;;18.58;8.30;;;15.10;99.90;;;15.33;75.81;101113.78;4934922;29;20107;-87
2023/10/07 04:03:46;;;;;;;17.58;8.35;;;15.20;99.90;;;15.32;76.07;101109.44;4916976;29;20048;-86
2023/10/07 04:06:16;;;;;;;19.75;8.60;;;15.20;99.90;;;15.33;76.03;101111.09;4919416;29;20124;-86
2023/10/07 04:08:45;;;;;;;18.65;8.18;;;15.20;99.90;;;15.32;76.10;101111.31;4909358;29;20054;-87
2023/10/07 04:11:19;;;;;;;17.02;8.55;;;15.20;99.90;;;15.30;76.51;101116.09;4950028;29;20217;-87
2023/10/07 04:13:53;;;;;;;17.73;8.52;;;15.10;99.90;;;15.35;76.26;101118.94;4916379;29;20048;-88
2023/10/07 04:16:27;;;;;;;17.92;8.35;;;15.20;99.90;;;15.32;76.26;101112.13;4919062;29;20146;-88
2023/10/07 04:19:06;;;;;;;22.38;9.07;;;15.20;99.90;;;15.31;76.14;101115.88;4978566;28;20044;-87
2023/10/07 04:21:39;;;;;;;17.15;8.25;;;15.20;99.90;;;15.31;76.27;101118.56;4935221;29;20047;-88
2023/10/07 04:24:09;;;;;;;17.63;7.68;;;15.20;99.90;;;15.35;76.27;101111.69;4925166;29;20459;-87
2023/10/07 04:26:39;;;;;;;17.95;7.95;;;15.20;99.90;;;15.37;76.31;101104.22;4920528;29;20499;-88
2023/10/07 04:29:08;;;;;;;16.05;8.48;;;15.20;99.90;;;15.38;76.17;101094.31;4948905;29;20047;-87
2023/10/07 04:31:39;;;;;;;16.92;8.63;;;15.20;99.90;;;15.33;76.41;101096.84;4934877;29;20052;-87
2023/10/07 04:34:16;;;;;;;17.25;9.27;;;15.20;99.90;;;15.33;76.49;101092.28;4934938;29;20062;-88
2023/10/07 04:37:10;;;;;;;21.30;9.02;;;15.20;99.90;;;15.27;76.79;101095.88;4938250;29;20126;-88
2023/10/07 04:39:39;;;;;;;21.08;9.48;;;15.10;99.90;;;15.29;76.77;101091.09;4964819;28;20046;-88
2023/10/07 04:42:07;;;;;;;20.48;8.73;;;15.20;99.90;;;15.33;76.66;101086.91;4938706;29;20107;-87
2023/10/07 04:47:29;;;;;;;20.13;8.25;;;15.20;99.90;;;15.41;76.46;101094.63;4959940;28;20503;-87
2023/10/07 04:50:01;;;;;;;18.92;8.88;;;15.20;99.90;;;15.40;76.46;101098.38;4920910;29;20508;-88
2023/10/07 04:52:30;;;;;;;19.23;9.98;;;15.20;99.90;;;15.30;76.86;101094.59;4912801;29;20609;-89
2023/10/07 04:54:58;;;;;;;22.52;9.65;;;15.20;99.90;;;15.32;77.05;101081.75;4938844;29;20510;-90
2023/10/07 05:00:17;;;;;;;18.85;9.75;;;15.20;99.90;;;15.37;76.87;101082.72;4920291;29;20508;-90
2023/10/07 05:02:46;;;;;;;22.75;9.73;;;15.20;99.90;;;15.32;77.15;101087.13;4932697;29;20151;-87
2023/10/07 05:05:14;;;;;;;18.77;9.63;;;15.20;99.90;;;15.30;77.42;101081.97;4956203;29;20051;-87
2023/10/07 05:07:43;;;;;;;18.55;9.68;;;15.20;99.90;;;15.32;77.26;101085.25;4981604;28;20121;-88
2023/10/07 05:10:10;;;;;;;25.15;10.50;;;15.20;99.90;;;15.30;77.63;101086.53;4960268;28;20051;-88
2023/10/07 05:12:39;;;;;;;21.33;9.70;;;15.20;99.90;;;15.31;77.69;101094.38;4917433;29;20465;-88
2023/10/07 05:15:08;;;;;;;21.00;10.68;;;15.20;99.90;;;15.31;77.76;101085.50;4953612;29;20046;-88
2023/10/07 05:17:36;;;;;;;22.40;10.52;;;15.20;99.90;;;15.32;77.89;101089.81;4943408;29;20055;-88
2023/10/07 05:20:26;;;;;;;21.98;10.13;;;15.20;99.90;;;15.28;78.21;101088.66;4924157;29;20032;-87
2023/10/07 05:22:54;;;;;;;15.95;9.85;;;15.20;99.90;;;15.32;77.99;101085.25;4959636;29;20134;-88
2023/10/07 05:25:22;;;;;;;20.08;9.95;;;15.20;99.90;;;15.32;78.13;101084.44;4942786;29;20062;-86
2023/10/07 05:27:50;;;;;;;21.58;10.63;;;15.20;99.90;;;15.34;78.12;101083.16;4952253;28;20054;-85
2023/10/07 05:30:19;;;;;;;22.80;9.93;;;15.30;99.90;;;15.35;78.02;101084.81;4937384;29;20417;-85
2023/10/07 05:32:48;;;;;;;18.67;10.35;;;15.30;99.90;;;15.36;78.17;101078.38;4954097;29;20054;-85
2023/10/07 05:35:18;;;;;;;19.65;10.32;;;15.30;99.90;;;15.37;78.04;101077.34;4922584;29;20059;-85
2023/10/07 05:37:46;;;;;;;20.30;10.18;;;15.30;99.90;;;15.34;78.21;101076.97;4939930;29;20534;-85
2023/10/07 05:40:16;;;;;;;19.85;10.52;;;15.20;99.90;;;15.37;78.08;101076.50;4941472;28;20471;-85
2023/10/07 05:42:45;;;;;;;25.35;9.57;;;15.20;99.90;;;15.35;78.06;101074.06;4941375;29;20512;-86
2023/10/07 05:45:14;;;;;;;20.25;8.85;;;15.30;99.90;;;15.38;78.11;101081.69;4940156;29;20786;-86
2023/10/07 05:47:45;;;;;;;18.20;9.07;;;15.30;99.90;;;15.42;77.92;101084.69;4948450;29;20043;-86
2023/10/07 05:50:13;;;;;;;15.20;9.30;;;15.30;99.90;;;15.43;77.93;101083.69;4942283;28;20060;-86
2023/10/07 05:52:44;;;;;;;17.40;8.73;;;15.30;99.90;;;15.46;77.85;101094.78;4921798;29;20059;-86
2023/10/07 05:55:11;;;;;;;19.77;9.50;;;15.30;99.90;;;15.43;78.19;101091.75;4950612;28;20048;-89
2023/10/07 05:57:39;;;;;;;20.08;8.85;;;15.30;99.90;;;15.44;78.04;101088.00;4940371;29;20055;-87
2023/10/07 06:00:10;;;;;;;23.75;9.00;;;15.30;99.90;;;15.46;78.12;101091.28;4942098;28;20044;-85
2023/10/07 06:02:40;;;;;;;21.83;9.48;;;15.30;99.90;;;15.46;78.26;101089.41;4922213;29;20609;-86
2023/10/07 06:05:10;;;;;;;18.88;9.50;;;15.30;99.90;;;15.42;78.67;101096.31;4921974;29;20530;-87
2023/10/07 06:07:39;;;;;;;19.40;8.48;;;15.30;99.90;;;15.42;78.86;101099.00;4947068;29;20043;-87
2023/10/07 06:10:12;;;;;;;17.63;8.43;;;15.30;99.90;;;15.43;78.81;101106.00;4957903;28;20054;-88
2023/10/07 06:12:40;;;;;;;19.98;9.10;;;15.30;99.90;;;15.41;78.89;101104.56;4928004;29;20067;-86
2023/10/07 06:15:10;;;;;;;19.92;9.75;;;15.30;99.90;;;15.38;79.04;101105.88;4921504;29;20052;-88
2023/10/07 06:17:38;;;;;;;22.02;9.07;;;15.30;99.90;;;15.33;79.32;101111.09;4961740;28;20134;-87
2023/10/07 06:20:14;;;;;;;18.83;8.85;;;15.30;99.90;;;15.38;79.40;101108.56;4924278;28;20130;-87
2023/10/07 06:22:46;;;;;;;15.80;8.32;;;15.30;99.90;;;15.42;79.10;101106.22;4934407;29;20051;-87
2023/10/07 06:25:15;;;;;;;21.48;8.88;;;15.40;99.90;;;15.46;79.14;101110.91;4936225;29;20244;-88
2023/10/07 06:27:44;;;;;;;16.77;9.10;;;15.40;99.90;;;15.42;79.35;101112.44;4957712;28;20048;-88
2023/10/07 06:30:20;;;;;;;18.17;8.63;;;15.40;99.90;;;15.43;79.16;101105.19;4921472;29;20075;-89
2023/10/07 06:32:55;;;;;;;19.85;8.45;;;15.40;99.90;;;15.43;79.25;101113.25;4936721;29;20407;-87
2023/10/07 06:35:23;;;;;;;20.92;8.32;;;15.40;99.90;;;15.41;79.40;101123.38;4937292;28;20051;-90
2023/10/07 06:37:52;;;;;;;19.17;8.18;;;15.40;99.90;;;15.40;79.36;101119.88;4936955;28;20048;-92
2023/10/07 06:40:25;;;;;;;17.65;8.00;;;15.30;99.90;;;15.42;79.29;101116.97;4937656;28;20456;-91
2023/10/07 06:42:55;;;;;;;17.40;8.60;;;15.40;99.90;;;15.43;79.48;101107.88;4941355;28;20529;-84
2023/10/07 06:45:23;;;;;;;18.23;7.38;;;15.40;99.90;;;15.45;79.37;101105.75;4942532;29;20047;-84
2023/10/07 06:47:51;;;;;;;16.42;8.40;;;15.40;99.90;;;15.44;79.69;101104.94;4950052;29;20046;-84
2023/10/07 06:50:26;;;;;;;17.70;7.72;;;15.40;99.90;;;15.45;79.52;101100.38;4944070;29;20059;-84
2023/10/07 06:52:55;;;;;;;18.80;8.10;;;15.40;99.90;;;15.35;80.17;101097.44;4943744;29;20084;-85
2023/10/07 06:55:28;;;;;;;17.17;8.63;;;15.40;99.90;;;15.34;80.36;101099.28;4917928;29;20056;-87
2023/10/07 06:57:57;;;;;;;15.05;7.78;;;15.40;99.90;;;15.39;80.41;101110.19;4910073;29;20051;-85
2023/10/07 07:00:27;;;;;;;17.13;8.07;;;15.40;99.90;;;15.44;80.19;101115.69;4938005;29;20047;-85
2023/10/07 07:02:57;;;;;;;15.68;7.57;;;15.50;99.90;;;15.44;80.33;101110.31;4955709;29;20051;-85
2023/10/07 07:05:33;;;;;;;18.38;8.05;;;15.50;99.90;;;15.46;80.29;101120.84;4971111;28;20051;-85
2023/10/07 07:08:03;;;;;;;16.63;7.47;;;15.50;99.90;;;15.54;80.10;101122.41;4925441;29;20052;-85
2023/10/07 07:10:32;;;;;;;14.20;6.97;;;15.50;99.90;;;15.57;80.21;101130.03;4939048;28;20111;-84
2023/10/07 07:13:05;;;;;;;19.08;7.93;;;15.50;99.90;;;15.58;79.94;101128.97;4924293;29;20051;-85
2023/10/07 07:15:37;;;;;;;19.23;7.35;;;15.60;99.90;;;15.59;80.18;101122.53;4972361;28;20048;-86
2023/10/07 07:21:12;;;;;;;19.08;7.10;;;15.60;99.90;;;15.66;80.26;101117.91;4933440;29;20048;-87
2023/10/07 07:23:40;;;;;;;22.13;7.63;;;15.70;99.90;;;15.64;80.43;101114.63;4936296;28;20055;-87
2023/10/07 07:26:18;;;;;;;18.13;7.60;;;15.70;99.90;;;15.66;80.40;101124.13;4968183;28;20465;-88
2023/10/07 07:28:44;;;;;;;12.77;7.00;;;15.70;99.90;;;15.65;80.54;101122.47;4936260;29;20048;-87
2023/10/07 07:31:18;;;;;;;18.40;6.97;;;15.70;99.90;;;15.70;80.48;101127.16;4919968;29;20040;-87
2023/10/07 07:33:50;;;;;;;18.20;7.25;;;15.70;99.90;;;15.73;80.09;101123.22;4935089;29;20055;-88
2023/10/07 07:36:38;;;;;;;15.90;7.35;;;15.70;99.90;;;15.78;79.95;101126.84;4936383;29;20075;-88
2023/10/07 07:39:09;;;;;;;14.95;6.80;;;15.80;99.90;;;15.80;80.00;101130.13;4936881;29;20048;-87
2023/10/07 07:41:54;;;;;;;;;;;15.80;99.90;;;15.84;80.24;101125.91;4935757;29;20495;-87
2023/10/07 07:44:32;;;;;;;15.80;7.13;;;15.80;99.90;;;15.81;80.24;101123.72;4933946;29;20017;-87
2023/10/07 07:47:02;;;;;;;18.42;7.15;;;15.90;99.90;;;15.87;80.33;101125.47;4966981;28;20462;-87
2023/10/07 07:49:32;;;;;;;15.50;6.93;;;15.90;99.90;;;15.89;79.99;101123.34;4987268;28;20054;-87
2023/10/07 07:52:08;;;;;;;16.65;6.95;;;16.00;99.90;;;15.99;80.41;101135.44;4956129;28;20055;-87
2023/10/07 07:54:35;;;;;;;18.40;6.30;;;16.00;99.90;;;15.96;80.14;101134.84;4938330;28;20130;-87
2023/10/07 07:57:07;;;;;;;15.63;6.30;;;16.00;99.90;;;15.99;80.02;101132.75;4941259;29;20035;-87
2023/10/07 07:59:35;;;;;;;17.42;7.03;;;16.10;99.90;;;15.93;80.37;101135.31;4945554;28;20059;-87
2023/10/07 08:02:12;;;;;;;18.50;6.88;;;16.10;99.90;;;15.95;80.28;101137.75;4935272;28;20460;-87
2023/10/07 08:04:48;;;;;;;15.32;7.22;;;16.10;99.90;;;16.02;80.30;101134.97;4966441;28;20055;-87
2023/10/07 08:07:27;;;;;;;14.45;6.30;;;16.10;99.90;;;16.07;80.17;101130.53;4941846;28;20102;-87
2023/10/07 08:09:58;;;;;;;19.30;6.45;;;16.10;99.90;;;16.06;79.84;101139.69;4968596;28;20061;-87
2023/10/07 08:12:34;;;;;;;17.90;6.85;;;16.20;99.90;;;16.13;80.21;101139.56;4947155;28;20048;-88
2023/10/07 08:15:09;;;;;;;13.88;6.15;;;16.20;99.90;;;16.14;79.98;101135.81;4934816;29;20099;-87
2023/10/07 08:17:37;;;;;;;19.75;7.07;;;16.20;99.90;;;16.20;79.99;101146.50;4961110;28;20498;-87
2023/10/07 08:20:12;;;;;;;14.13;5.97;;;16.30;99.90;;;16.28;80.66;101149.88;4948819;28;20036;-87
2023/10/07 08:22:45;;;;;;;13.18;6.13;;;16.40;99.90;;;16.34;80.13;101140.88;4915937;29;20468;-87
2023/10/07 08:25:16;;;;;;;16.38;6.20;;;16.50;99.90;;;16.41;80.03;101149.66;4917575;29;20051;-87
2023/10/07 08:27:49;;;;;;;13.60;5.93;;;16.60;99.90;;;16.45;79.86;101153.53;4960256;28;20058;-87
2023/10/07 08:30:29;;;;;;;15.30;6.13;;;16.60;99.90;;;16.45;79.67;101158.94;4969572;28;20050;-87
2023/10/07 08:32:57;;;;;;;11.45;5.57;;;16.60;99.90;;;16.42;78.75;101148.59;4954521;28;20055;-88
2023/10/07 08:35:26;;;;;;;14.60;5.93;;;16.60;99.90;;;16.38;78.81;101153.63;4901636;29;20122;-87
2023/10/07 08:37:56;;;;;;;12.98;6.10;;;16.50;99.90;;;16.35;79.09;101146.03;4948918;29;20052;-88
2023/10/07 08:40:27;;;;;;;13.65;6.18;;;16.50;99.90;;;16.30;79.33;101145.91;4934273;29;20044;-87
2023/10/07 08:42:59;;;;;;;12.95;5.75;;;16.40;99.90;;;16.30;79.26;101135.16;4918187;29;20043;-86
2023/10/07 08:45:28;;;;;;;11.15;5.68;;;16.40;99.90;;;16.25;79.44;101137.72;4948821;29;20043;-87
2023/10/07 08:48:08;;;;;;;19.98;6.80;;;16.40;99.90;;;16.28;79.17;101142.63;4946283;28;20043;-86
2023/10/07 08:50:49;;;;;;;13.13;5.60;;;16.30;99.90;;;16.33;79.54;101137.34;4923566;29;20051;-86
2023/10/07 08:53:17;;;;;;;13.75;6.18;;;16.40;99.90;;;16.32;79.82;101134.91;4934207;29;20514;-86
2023/10/07 08:55:48;;;;;;;15.00;5.68;;;16.40;99.90;;;16.35;80.25;101142.53;4936256;29;20040;-86
2023/10/07 08:58:18;;;;;;;16.23;6.18;;;16.40;99.90;;;16.35;80.22;101143.34;4961295;28;20515;-86
2023/10/07 09:00:47;;;;;;;12.70;5.97;;;16.50;99.90;;;16.39;79.43;101147.19;4917305;29;20499;-87
2023/10/07 09:03:15;;;;;;;12.77;5.22;;;16.50;99.90;;;16.41;79.60;101142.41;4944969;28;20049;-87
2023/10/07 09:05:44;;;;;;;13.38;5.47;;;16.50;99.90;;;16.41;79.61;101141.59;4930846;29;20063;-87
2023/10/07 09:08:14;;;;;;;11.23;5.32;;;16.50;99.90;;;16.41;80.26;101131.63;4941253;29;20471;-87
2023/10/07 09:10:45;;;;;;;13.93;5.78;;;16.50;99.90;;;16.50;80.25;101124.03;4934520;29;20047;-87
2023/10/07 09:13:19;;;;;;;14.83;5.40;;;16.60;99.90;;;16.59;80.31;101129.88;4933824;29;20040;-87
2023/10/07 09:15:54;;;;;;;13.27;5.68;;;16.70;99.90;;;16.55;79.19;101121.47;4950356;29;20163;-87
2023/10/07 09:18:28;;;;;;;13.32;5.60;;;16.70;99.90;;;16.57;79.61;101096.97;4926624;29;20082;-87
2023/10/07 09:20:57;;;;;;;15.88;5.50;;;16.70;99.90;;;16.67;80.33;101106.09;4935843;29;20043;-87
2023/10/07 09:23:35;;;;;;;16.23;5.28;;;16.80;99.90;;;16.80;80.30;101106.94;4933804;29;20110;-87
2023/10/07 09:26:21;;;;;;;15.13;5.40;;;16.90;99.90;;;16.92;80.12;101096.94;4953937;29;20401;-87
2023/10/07 09:28:58;;;;;;;12.23;5.30;;;17.10;99.90;;;17.01;78.99;101111.69;4949694;28;20050;-87
2023/10/07 09:31:30;;;;;;;9.82;4.95;;;17.20;99.90;;;17.10;78.09;101109.47;4921024;29;20103;-87
2023/10/07 09:34:09;;;;;;;12.02;5.15;;;17.30;99.90;;;17.18;77.80;101109.09;4908808;29;20075;-86
2023/10/07 09:36:40;;;;;;;10.55;4.93;;;17.40;99.90;;;17.26;77.84;101103.31;4952202;28;20078;-87
2023/10/07 09:39:31;;;;;;;18.67;5.03;;;17.50;99.90;;;17.38;77.96;101112.19;4960623;28;20126;-86
2023/10/07 09:42:26;;;;;;;;;;;17.60;99.90;;;17.47;77.29;101126.06;4938761;29;20043;-87
2023/10/07 09:45:02;;;;;;;10.55;4.60;;;17.70;99.90;;;17.51;77.17;101128.06;4937084;29;19923;-87
2023/10/07 09:47:33;;;;;;;12.27;4.90;;;17.80;99.90;;;17.53;76.20;101137.81;4961137;28;20047;-87
2023/10/07 09:50:09;;;;;;;;;;;17.80;99.90;;;17.51;76.33;101127.25;4939241;28;20055;-87
2023/10/07 09:52:41;;;;;;;15.38;5.05;;;17.80;99.90;;;17.52;76.46;101126.19;4936638;29;19923;-87
2023/10/07 09:55:38;;;;;;;11.02;4.80;;;17.80;99.90;;;17.60;75.99;101117.69;4922758;29;20047;-87
2023/10/07 09:58:34;;;;;;;11.35;4.97;;;17.80;99.90;;;17.68;76.12;101111.09;4942960;28;20131;-86
2023/10/07 10:01:29;;;;;;;9.85;4.60;;;17.90;99.90;;;17.70;76.37;101117.88;4939088;29;20039;-85
2023/10/07 10:04:21;;;;;;;9.95;4.55;;;17.90;99.90;;;17.81;76.62;101096.50;4939609;29;20070;-86
2023/10/07 10:07:21;;;;;;;11.82;4.88;;;18.00;99.90;;;17.89;76.38;101099.63;4928699;29;20044;-87
2023/10/07 10:10:05;;;;;;;13.57;4.23;;;18.20;99.90;;;17.95;75.63;101108.63;4904671;29;20048;-89
2023/10/07 10:15:57;;;;;;;10.05;4.30;;;18.30;99.90;;;18.10;74.69;101108.88;5091136;27;20408;-86
2023/10/07 10:18:37;;;;;;;12.55;4.03;;;18.40;99.90;;;18.16;74.62;101104.41;5050979;28;20069;-87
2023/10/07 10:21:09;;;;;;;8.77;3.83;;;18.40;99.90;;;18.24;73.79;101120.97;5051050;28;20114;-88
2023/10/07 10:23:44;;;;;;;9.18;3.95;;;18.50;99.90;;;18.29;74.63;101109.44;5049646;28;20079;-87
2023/10/07 10:26:20;;;;;;;13.38;4.50;;;18.50;99.90;;;18.34;73.53;101109.53;5038943;28;20041;-91
2023/10/07 10:29:07;;;;;;;10.55;4.43;;;18.60;99.90;;;18.35;72.54;101111.19;5047963;28;20504;-85
2023/10/07 10:31:37;;;;;;;11.85;4.40;;;18.70;99.90;;;18.36;72.92;101120.09;5048877;28;20420;-84
2023/10/07 10:34:08;;;;;;;9.07;3.92;;;18.70;99.90;;;18.38;73.74;101118.78;5028040;28;20448;-84
2023/10/07 10:36:42;;;;;;;;;;;18.70;99.90;;;18.39;73.40;101111.47;5048376;28;20049;-87
2023/10/07 10:39:22;;;;;;;10.65;3.90;;;18.70;99.90;;;18.43;73.00;101120.72;5046700;28;19927;-84
2023/10/07 10:41:51;;;;;;;13.45;3.85;;;18.70;99.90;;;18.46;72.56;101110.25;4998376;28;20045;-83
2023/10/07 10:44:20;;;;;;;12.38;3.72;;;18.80;99.90;;;18.50;71.98;101106.00;5036405;28;20071;-84